createdAt,value
2017-08-05T00:00:57.379Z,21.86
2017-08-05T00:02:06.338Z,21.88
2017-08-05T00:03:15.305Z,21.9
2017-08-05T00:04:24.260Z,21.83
2017-08-05T00:05:33.226Z,21.9
2017-08-05T00:06:42.191Z,21.88
2017-08-05T00:07:51.155Z,21.84
2017-08-05T00:09:00.111Z,21.83
2017-08-05T00:10:09.073Z,21.91
2017-08-05T00:11:18.037Z,21.88
2017-08-05T00:12:27.003Z,21.83
2017-08-05T00:13:36.284Z,21.86
2017-08-05T00:14:45.248Z,21.9
2017-08-05T00:15:54.532Z,21.82
2017-08-05T00:17:03.484Z,21.8
2017-08-05T00:18:12.449Z,21.83
2017-08-05T00:19:21.408Z,21.8
2017-08-05T00:20:30.363Z,21.83
2017-08-05T00:21:39.328Z,21.82
2017-08-05T00:22:48.283Z,21.75
2017-08-05T00:23:57.254Z,21.72
2017-08-05T00:25:06.227Z,21.84
2017-08-05T00:26:15.528Z,21.82
2017-08-05T00:27:24.486Z,21.77
2017-08-05T00:28:33.468Z,21.82
2017-08-05T00:29:42.435Z,21.77
2017-08-05T00:30:51.401Z,21.84
2017-08-05T00:32:00.371Z,21.74
2017-08-05T00:33:09.330Z,21.75
2017-08-05T00:34:18.289Z,21.79
2017-08-05T00:35:27.242Z,21.72
2017-08-05T00:36:36.202Z,21.79
2017-08-05T00:37:45.172Z,21.69
2017-08-05T00:38:54.143Z,21.69
2017-08-05T00:40:03.095Z,21.69
2017-08-05T00:41:12.061Z,21.72
2017-08-05T00:42:21.016Z,21.79
2017-08-05T00:43:29.983Z,21.72
2017-08-05T00:44:38.940Z,21.69
2017-08-05T00:45:47.905Z,21.74
2017-08-05T00:46:56.869Z,21.67
2017-08-05T00:48:05.830Z,21.61
2017-08-05T00:49:14.796Z,21.58
2017-08-05T00:50:23.757Z,21.62
2017-08-05T00:51:32.727Z,21.67
2017-08-05T00:52:41.685Z,21.59
2017-08-05T00:53:50.646Z,21.62
2017-08-05T00:54:59.932Z,21.69
2017-08-05T00:56:09.228Z,21.62
2017-08-05T00:57:18.511Z,21.64
2017-08-05T00:58:27.465Z,21.61
2017-08-05T00:59:36.468Z,21.61
2017-08-05T01:00:45.426Z,21.64
2017-08-05T01:01:54.396Z,21.59
2017-08-05T01:03:03.362Z,21.56
2017-08-05T01:04:12.315Z,21.62
2017-08-05T01:05:21.276Z,21.62
2017-08-05T01:06:30.236Z,21.61
2017-08-05T01:07:39.193Z,21.67
2017-08-05T01:08:48.154Z,21.58
2017-08-05T01:09:57.121Z,21.52
2017-08-05T01:11:06.083Z,21.62
2017-08-05T01:12:15.040Z,21.64
2017-08-05T01:13:24.007Z,21.56
2017-08-05T01:14:32.972Z,21.56
2017-08-05T01:15:41.942Z,21.61
2017-08-05T01:16:50.903Z,21.54
2017-08-05T01:17:59.860Z,21.52
2017-08-05T01:19:08.818Z,21.43
2017-08-05T01:20:17.785Z,21.47
2017-08-05T01:21:26.739Z,21.44
2017-08-05T01:22:35.698Z,21.46
2017-08-05T01:23:44.669Z,21.44
2017-08-05T01:24:53.958Z,21.37
2017-08-05T01:26:02.920Z,21.4
2017-08-05T01:27:11.880Z,21.42
2017-08-05T01:28:20.851Z,21.42
2017-08-05T01:29:30.132Z,21.35
2017-08-05T01:30:39.103Z,21.35
2017-08-05T01:31:48.076Z,21.35
2017-08-05T01:32:57.033Z,21.32
2017-08-05T01:34:06.006Z,21.29
2017-08-05T01:35:14.980Z,21.4
2017-08-05T01:36:23.937Z,21.34
2017-08-05T01:37:32.906Z,21.32
2017-08-05T01:38:41.873Z,21.32
2017-08-05T01:39:50.828Z,21.32
2017-08-05T01:41:00.128Z,21.21
2017-08-05T01:42:09.088Z,21.31
2017-08-05T01:43:18.047Z,21.31
2017-08-05T01:44:27.012Z,21.24
2017-08-05T01:45:35.966Z,21.13
2017-08-05T01:46:45.259Z,21.24
2017-08-05T01:47:54.225Z,21.17
2017-08-05T01:49:03.183Z,21.25
2017-08-05T01:50:12.140Z,21.12
2017-08-05T01:51:21.107Z,21.14
2017-08-05T01:52:30.064Z,21.14
2017-08-05T01:53:39.026Z,21.22
2017-08-05T01:54:47.990Z,21.1
2017-08-05T01:55:56.960Z,21.16
2017-08-05T01:57:05.920Z,21.14
2017-08-05T01:58:14.878Z,21.09
2017-08-05T01:59:23.845Z,21.09
2017-08-05T02:00:32.807Z,21.01
2017-08-05T02:01:41.767Z,21.07
2017-08-05T02:02:50.725Z,21.01
2017-08-05T02:04:00.011Z,20.99
2017-08-05T02:05:08.973Z,21.03
2017-08-05T02:06:17.941Z,20.95
2017-08-05T02:07:26.904Z,20.89
2017-08-05T02:08:35.860Z,20.95
2017-08-05T02:09:44.817Z,20.95
2017-08-05T02:10:53.785Z,20.85
2017-08-05T02:12:02.747Z,20.95
2017-08-05T02:13:11.722Z,20.91
2017-08-05T02:14:21.009Z,20.88
2017-08-05T02:15:29.964Z,20.97
2017-08-05T02:16:38.925Z,20.85
2017-08-05T02:17:47.879Z,20.92
2017-08-05T02:18:56.841Z,20.82
2017-08-05T02:20:06.125Z,20.85
2017-08-05T02:21:15.087Z,20.77
2017-08-05T02:22:24.366Z,20.72
2017-08-05T02:23:33.330Z,20.76
2017-08-05T02:24:42.305Z,20.74
2017-08-05T02:25:51.269Z,20.72
2017-08-05T02:27:00.221Z,20.73
2017-08-05T02:28:09.189Z,20.73
2017-08-05T02:29:18.145Z,20.72
2017-08-05T02:30:27.103Z,20.74
2017-08-05T02:31:36.058Z,20.74
2017-08-05T02:32:45.026Z,20.66
2017-08-05T02:33:53.992Z,20.7
2017-08-05T02:35:02.959Z,20.73
2017-08-05T02:36:11.924Z,20.73
2017-08-05T02:37:20.876Z,20.66
2017-08-05T02:38:29.836Z,20.67
2017-08-05T02:39:38.799Z,20.62
2017-08-05T02:40:47.769Z,20.59
2017-08-05T02:41:56.738Z,20.72
2017-08-05T02:43:05.700Z,20.61
2017-08-05T02:44:14.666Z,20.66
2017-08-05T02:45:23.638Z,20.58
2017-08-05T02:46:32.935Z,20.57
2017-08-05T02:47:42.237Z,20.52
2017-08-05T02:48:51.202Z,20.54
2017-08-05T02:50:00.159Z,20.51
2017-08-05T02:51:09.122Z,20.52
2017-08-05T02:52:18.074Z,20.47
2017-08-05T02:53:27.034Z,20.48
2017-08-05T02:54:35.997Z,20.48
2017-08-05T02:55:44.952Z,20.52
2017-08-05T02:56:53.923Z,20.5
2017-08-05T02:58:02.880Z,20.5
2017-08-05T02:59:11.839Z,20.51
2017-08-05T03:00:20.795Z,20.52
2017-08-05T03:01:29.770Z,20.5
2017-08-05T03:02:38.729Z,20.55
2017-08-05T03:03:47.694Z,20.54
2017-08-05T03:04:56.650Z,20.51
2017-08-05T03:06:05.606Z,20.48
2017-08-05T03:07:14.564Z,20.52
2017-08-05T03:08:23.515Z,20.43
2017-08-05T03:09:32.485Z,20.42
2017-08-05T03:10:41.448Z,20.42
2017-08-05T03:11:50.422Z,20.41
2017-08-05T03:12:59.384Z,20.47
2017-08-05T03:14:08.338Z,20.48
2017-08-05T03:15:17.301Z,20.42
2017-08-05T03:16:26.256Z,20.47
2017-08-05T03:17:35.524Z,20.39
2017-08-05T03:18:44.487Z,20.41
2017-08-05T03:19:53.449Z,20.32
2017-08-05T03:21:02.404Z,20.31
2017-08-05T03:22:11.359Z,20.29
2017-08-05T03:23:20.311Z,20.42
2017-08-05T03:24:29.279Z,20.33
2017-08-05T03:25:38.235Z,20.36
2017-08-05T03:26:47.187Z,20.31
2017-08-05T03:27:56.143Z,20.39
2017-08-05T03:29:05.100Z,20.39
2017-08-05T03:30:14.059Z,20.36
2017-08-05T03:31:23.030Z,20.33
2017-08-05T03:32:31.993Z,20.36
2017-08-05T03:33:40.956Z,20.31
2017-08-05T03:34:49.921Z,20.21
2017-08-05T03:35:58.879Z,20.21
2017-08-05T03:37:07.841Z,20.16
2017-08-05T03:38:16.799Z,20.2
2017-08-05T03:39:25.760Z,20.16
2017-08-05T03:40:34.720Z,20.18
2017-08-05T03:41:43.688Z,20.14
2017-08-05T03:42:52.650Z,20.14
2017-08-05T03:44:01.612Z,20.05
2017-08-05T03:45:10.920Z,20.08
2017-08-05T03:46:19.870Z,20.14
2017-08-05T03:47:28.827Z,20.13
2017-08-05T03:48:37.787Z,20.1
2017-08-05T03:49:46.757Z,20.08
2017-08-05T03:50:55.715Z,20.11
2017-08-05T03:52:04.677Z,20.11
2017-08-05T03:53:13.647Z,20.18
2017-08-05T03:54:22.604Z,20.08
2017-08-05T03:55:31.562Z,20.1
2017-08-05T03:56:40.516Z,20.1
2017-08-05T03:57:49.804Z,20.14
2017-08-05T03:58:58.768Z,20.13
2017-08-05T04:00:07.720Z,20.16
2017-08-05T04:01:17.008Z,20.16
2017-08-05T04:02:25.965Z,20.13
2017-08-05T04:03:34.917Z,20.13
2017-08-05T04:04:43.880Z,20.08
2017-08-05T04:05:52.841Z,20.11
2017-08-05T04:07:01.801Z,20.06
2017-08-05T04:08:11.091Z,20.02
2017-08-05T04:09:20.050Z,19.98
2017-08-05T04:10:29.086Z,20.13
2017-08-05T04:11:38.052Z,20.08
2017-08-05T04:12:47.012Z,20.08
2017-08-05T04:13:55.968Z,20.11
2017-08-05T04:15:04.944Z,20.02
2017-08-05T04:16:13.905Z,20.08
2017-08-05T04:17:22.867Z,20.08
2017-08-05T04:18:31.824Z,20.06
2017-08-05T04:19:40.773Z,20.06
2017-08-05T04:20:49.754Z,20.1
2017-08-05T04:21:58.716Z,20.02
2017-08-05T04:23:07.676Z,20.08
2017-08-05T04:24:16.634Z,20.02
2017-08-05T04:25:25.592Z,19.96
2017-08-05T04:26:34.555Z,19.96
2017-08-05T04:27:43.513Z,20.02
2017-08-05T04:28:52.797Z,20.1
2017-08-05T04:30:01.745Z,20.05
2017-08-05T04:31:10.708Z,20.18
2017-08-05T04:32:19.675Z,20.05
2017-08-05T04:33:28.632Z,20.06
2017-08-05T04:34:37.586Z,20.08
2017-08-05T04:35:46.546Z,20.13
2017-08-05T04:36:55.520Z,20.13
2017-08-05T04:38:04.475Z,20.14
2017-08-05T04:39:13.428Z,20.18
2017-08-05T04:40:22.389Z,20.21
2017-08-05T04:41:31.337Z,20.11
2017-08-05T04:42:40.288Z,20.21
2017-08-05T04:43:49.241Z,20.16
2017-08-05T04:44:58.544Z,20.17
2017-08-05T04:46:07.498Z,20.16
2017-08-05T04:47:16.464Z,20.16
2017-08-05T04:48:25.418Z,20.18
2017-08-05T04:49:34.402Z,20.17
2017-08-05T04:50:43.355Z,20.21
2017-08-05T04:51:52.644Z,20.2
2017-08-05T04:53:01.611Z,20.17
2017-08-05T04:54:10.583Z,20.17
2017-08-05T04:55:19.631Z,20.24
2017-08-05T04:56:28.590Z,20.18
2017-08-05T04:57:37.541Z,20.28
2017-08-05T04:58:46.497Z,20.2
2017-08-05T04:59:55.457Z,20.18
2017-08-05T05:01:04.418Z,20.21
2017-08-05T05:02:13.385Z,20.32
2017-08-05T05:03:22.352Z,20.26
2017-08-05T05:04:31.320Z,20.35
2017-08-05T05:05:40.275Z,20.36
2017-08-05T05:06:49.232Z,20.35
2017-08-05T05:07:58.512Z,20.33
2017-08-05T05:09:07.472Z,20.35
2017-08-05T05:10:16.434Z,20.36
2017-08-05T05:11:25.381Z,20.36
2017-08-05T05:12:34.344Z,20.42
2017-08-05T05:13:43.301Z,20.42
2017-08-05T05:14:52.593Z,20.43
2017-08-05T05:16:01.547Z,20.47
2017-08-05T05:17:10.506Z,20.47
2017-08-05T05:18:19.469Z,20.51
2017-08-05T05:19:28.439Z,20.51
2017-08-05T05:20:37.398Z,20.55
2017-08-05T05:21:46.359Z,20.54
2017-08-05T05:22:55.312Z,20.54
2017-08-05T05:24:04.272Z,20.51
2017-08-05T05:25:13.555Z,20.59
2017-08-05T05:26:22.516Z,20.59
2017-08-05T05:27:31.474Z,20.61
2017-08-05T05:28:40.433Z,20.72
2017-08-05T05:29:49.400Z,20.7
2017-08-05T05:30:58.354Z,20.72
2017-08-05T05:32:07.639Z,20.74
2017-08-05T05:33:16.601Z,20.74
2017-08-05T05:34:25.567Z,20.76
2017-08-05T05:35:34.529Z,20.82
2017-08-05T05:36:43.482Z,20.85
2017-08-05T05:37:52.450Z,20.82
2017-08-05T05:39:01.403Z,20.88
2017-08-05T05:40:10.361Z,20.89
2017-08-05T05:41:19.327Z,20.85
2017-08-05T05:42:28.292Z,20.89
2017-08-05T05:43:37.251Z,20.87
2017-08-05T05:44:46.210Z,20.84
2017-08-05T05:45:55.169Z,20.97
2017-08-05T05:47:04.128Z,20.94
2017-08-05T05:48:13.091Z,20.91
2017-08-05T05:49:22.052Z,20.89
2017-08-05T05:50:31.011Z,20.92
2017-08-05T05:51:39.961Z,20.87
2017-08-05T05:52:48.918Z,20.82
2017-08-05T05:53:57.889Z,20.89
2017-08-05T05:55:06.871Z,20.88
2017-08-05T05:56:15.845Z,20.97
2017-08-05T05:57:24.803Z,20.88
2017-08-05T05:58:33.776Z,20.92
2017-08-05T05:59:42.731Z,20.85
2017-08-05T06:00:51.693Z,20.88
2017-08-05T06:02:00.653Z,20.94
2017-08-05T06:03:09.610Z,20.88
2017-08-05T06:04:18.566Z,20.94
2017-08-05T06:05:27.529Z,20.97
2017-08-05T06:06:36.491Z,20.94
2017-08-05T06:07:45.483Z,20.99
2017-08-05T06:08:54.435Z,20.94
2017-08-05T06:10:03.392Z,21.01
2017-08-05T06:11:12.350Z,20.95
2017-08-05T06:12:21.310Z,21.07
2017-08-05T06:13:30.278Z,21.13
2017-08-05T06:14:39.240Z,21.12
2017-08-05T06:15:48.202Z,21.21
2017-08-05T06:16:57.160Z,21.35
2017-08-05T06:18:06.121Z,21.34
2017-08-05T06:19:15.075Z,21.32
2017-08-05T06:20:24.042Z,21.37
2017-08-05T06:21:33.009Z,21.35
2017-08-05T06:22:42.300Z,21.47
2017-08-05T06:23:51.264Z,21.44
2017-08-05T06:25:00.228Z,21.44
2017-08-05T06:26:09.196Z,21.47
2017-08-05T06:27:18.155Z,21.46
2017-08-05T06:28:27.113Z,21.44
2017-08-05T06:29:36.065Z,21.42
2017-08-05T06:30:45.032Z,21.49
2017-08-05T06:31:53.982Z,21.47
2017-08-05T06:33:02.942Z,21.53
2017-08-05T06:34:11.903Z,21.5
2017-08-05T06:35:20.868Z,21.59
2017-08-05T06:36:29.836Z,21.56
2017-08-05T06:37:38.797Z,21.58
2017-08-05T06:38:47.756Z,21.62
2017-08-05T06:39:56.718Z,21.75
2017-08-05T06:41:06.003Z,21.67
2017-08-05T06:42:14.967Z,21.68
2017-08-05T06:43:23.931Z,21.77
2017-08-05T06:44:32.888Z,21.83
2017-08-05T06:45:41.851Z,21.82
2017-08-05T06:46:50.821Z,21.88
2017-08-05T06:47:59.781Z,21.82
2017-08-05T06:49:08.746Z,21.9
2017-08-05T06:50:17.707Z,21.84
2017-08-05T06:51:26.661Z,21.91
2017-08-05T06:52:35.643Z,22.02
2017-08-05T06:53:44.604Z,21.92
2017-08-05T06:54:53.572Z,21.92
2017-08-05T06:56:02.532Z,21.86
2017-08-05T06:57:11.497Z,21.92
2017-08-05T06:58:20.464Z,21.92
2017-08-05T06:59:29.431Z,21.99
2017-08-05T07:00:38.388Z,22
2017-08-05T07:01:47.356Z,21.99
2017-08-05T07:02:56.643Z,22.03
2017-08-05T07:04:05.604Z,22.05
2017-08-05T07:05:14.884Z,22.03
2017-08-05T07:06:23.842Z,22.02
2017-08-05T07:07:32.805Z,22.05
2017-08-05T07:08:41.774Z,22.2
2017-08-05T07:09:50.735Z,22.18
2017-08-05T07:10:59.694Z,22.18
2017-08-05T07:12:08.655Z,22.15
2017-08-05T07:13:17.943Z,22.12
2017-08-05T07:14:26.894Z,22.17
2017-08-05T07:15:35.864Z,22.12
2017-08-05T07:16:44.827Z,22.12
2017-08-05T07:17:53.791Z,22.15
2017-08-05T07:19:02.765Z,22.17
2017-08-05T07:20:11.723Z,22.1
2017-08-05T07:21:20.680Z,22.18
2017-08-05T07:22:29.966Z,22.2
2017-08-05T07:23:38.922Z,22.31
2017-08-05T07:24:47.885Z,22.24
2017-08-05T07:25:57.183Z,22.31
2017-08-05T07:27:06.161Z,22.36
2017-08-05T07:28:15.121Z,22.35
2017-08-05T07:29:24.083Z,22.42
2017-08-05T07:30:33.042Z,22.36
2017-08-05T07:31:42.006Z,22.49
2017-08-05T07:32:50.962Z,22.51
2017-08-05T07:33:59.925Z,22.57
2017-08-05T07:35:08.885Z,22.58
2017-08-05T07:36:17.846Z,22.7
2017-08-05T07:37:26.800Z,22.72
2017-08-05T07:38:35.770Z,22.67
2017-08-05T07:39:44.736Z,22.79
2017-08-05T07:40:53.702Z,22.75
2017-08-05T07:42:02.662Z,22.86
2017-08-05T07:43:11.622Z,22.9
2017-08-05T07:44:20.630Z,23
2017-08-05T07:45:29.587Z,23
2017-08-05T07:46:38.545Z,22.97
2017-08-05T07:47:47.516Z,22.9
2017-08-05T07:48:56.809Z,23
2017-08-05T07:50:05.772Z,22.94
2017-08-05T07:51:15.061Z,22.95
2017-08-05T07:52:24.026Z,22.94
2017-08-05T07:53:32.987Z,22.9
2017-08-05T07:54:41.952Z,22.9
2017-08-05T07:55:50.913Z,22.91
2017-08-05T07:57:00.197Z,22.95
2017-08-05T07:58:09.161Z,22.97
2017-08-05T07:59:18.116Z,22.97
2017-08-05T08:00:27.080Z,22.94
2017-08-05T08:01:36.368Z,23.04
2017-08-05T08:02:45.335Z,22.9
2017-08-05T08:03:54.298Z,23
2017-08-05T08:05:03.280Z,23.01
2017-08-05T08:06:12.578Z,23.02
2017-08-05T08:07:21.536Z,23.05
2017-08-05T08:08:30.502Z,23.02
2017-08-05T08:09:39.477Z,23.04
2017-08-05T08:10:48.431Z,23
2017-08-05T08:11:57.392Z,23.12
2017-08-05T08:13:06.362Z,23.19
2017-08-05T08:14:15.312Z,23.23
2017-08-05T08:15:24.273Z,23.27
2017-08-05T08:16:33.251Z,23.38
2017-08-05T08:17:42.212Z,23.36
2017-08-05T08:18:51.170Z,23.4
2017-08-05T08:20:00.134Z,23.46
2017-08-05T08:21:09.748Z,23.47
2017-08-05T08:22:18.712Z,23.43
2017-08-05T08:23:27.678Z,23.54
2017-08-05T08:24:36.635Z,23.47
2017-08-05T08:25:45.598Z,23.54
2017-08-05T08:26:54.572Z,23.43
2017-08-05T08:28:03.536Z,23.5
2017-08-05T08:29:12.513Z,23.53
2017-08-05T08:30:21.467Z,23.58
2017-08-05T08:31:30.432Z,23.7
2017-08-05T08:32:39.398Z,23.65
2017-08-05T08:33:48.366Z,23.68
2017-08-05T08:34:57.322Z,23.76
2017-08-05T08:36:06.305Z,23.79
2017-08-05T08:37:15.273Z,23.79
2017-08-05T08:38:24.233Z,23.85
2017-08-05T08:39:33.198Z,23.93
2017-08-05T08:40:42.158Z,24.05
2017-08-05T08:41:51.116Z,24.08
2017-08-05T08:43:00.071Z,24.09
2017-08-05T08:44:09.029Z,24.16
2017-08-05T08:45:17.995Z,24.27
2017-08-05T08:46:26.952Z,24.24
2017-08-05T08:47:35.932Z,24.34
2017-08-05T08:48:44.898Z,24.32
2017-08-05T08:49:53.855Z,24.31
2017-08-05T08:51:02.813Z,24.4
2017-08-05T08:52:12.115Z,24.4
2017-08-05T08:53:21.398Z,24.37
2017-08-05T08:54:30.694Z,24.42
2017-08-05T08:55:39.657Z,24.43
2017-08-05T08:56:48.678Z,24.45
2017-08-05T08:57:57.646Z,24.4
2017-08-05T08:59:06.632Z,24.42
2017-08-05T09:00:15.600Z,24.35
2017-08-05T09:01:24.587Z,24.49
2017-08-05T09:02:33.545Z,24.58
2017-08-05T09:03:42.512Z,24.55
2017-08-05T09:04:51.471Z,24.58
2017-08-05T09:06:00.449Z,24.6
2017-08-05T09:07:09.418Z,24.65
2017-08-05T09:08:18.374Z,24.68
2017-08-05T09:09:27.675Z,24.58
2017-08-05T09:10:36.636Z,24.64
2017-08-05T09:11:45.599Z,24.62
2017-08-05T09:12:54.889Z,24.6
2017-08-05T09:14:04.180Z,24.57
2017-08-05T09:15:13.467Z,24.68
2017-08-05T09:16:22.428Z,24.61
2017-08-05T09:17:31.391Z,24.58
2017-08-05T09:18:40.351Z,24.6
2017-08-05T09:19:49.314Z,24.65
2017-08-05T09:20:58.278Z,24.71
2017-08-05T09:22:07.575Z,24.78
2017-08-05T09:23:16.534Z,24.73
2017-08-05T09:24:25.517Z,24.77
2017-08-05T09:25:34.483Z,24.8
2017-08-05T09:26:43.458Z,24.85
2017-08-05T09:27:52.415Z,24.84
2017-08-05T09:29:01.428Z,24.8
2017-08-05T09:30:10.740Z,24.81
2017-08-05T09:31:19.703Z,24.73
2017-08-05T09:32:28.663Z,24.77
2017-08-05T09:33:37.634Z,24.73
2017-08-05T09:34:46.602Z,24.76
2017-08-05T09:35:55.564Z,24.76
2017-08-05T09:37:04.528Z,24.71
2017-08-05T09:38:13.498Z,24.78
2017-08-05T09:39:22.462Z,24.76
2017-08-05T09:40:31.423Z,24.85
2017-08-05T09:41:40.392Z,24.8
2017-08-05T09:42:49.359Z,24.9
2017-08-05T09:43:58.323Z,24.81
2017-08-05T09:45:07.291Z,24.96
2017-08-05T09:46:16.250Z,24.95
2017-08-05T09:47:25.212Z,25.03
2017-08-05T09:48:34.174Z,25.05
2017-08-05T09:49:43.141Z,25.15
2017-08-05T09:50:52.103Z,25.2
2017-08-05T09:52:01.069Z,25.15
2017-08-05T09:53:10.029Z,25.2
2017-08-05T09:54:18.990Z,25.2
2017-08-05T09:55:27.952Z,25.3
2017-08-05T09:56:36.905Z,25.36
2017-08-05T09:57:45.864Z,25.36
2017-08-05T09:58:54.824Z,25.36
2017-08-05T10:00:03.783Z,25.39
2017-08-05T10:01:12.761Z,25.43
2017-08-05T10:02:21.732Z,25.4
2017-08-05T10:03:31.023Z,25.45
2017-08-05T10:04:39.992Z,25.46
2017-08-05T10:05:48.955Z,25.47
2017-08-05T10:06:57.910Z,25.43
2017-08-05T10:08:07.194Z,25.42
2017-08-05T10:09:16.153Z,25.4
2017-08-05T10:10:25.113Z,25.23
2017-08-05T10:11:34.073Z,25.2
2017-08-05T10:12:43.039Z,25.09
2017-08-05T10:13:52.000Z,25.1
2017-08-05T10:15:00.959Z,25.14
2017-08-05T10:16:10.257Z,25.1
2017-08-05T10:17:19.225Z,25.1
2017-08-05T10:18:28.212Z,25.05
2017-08-05T10:19:37.173Z,24.93
2017-08-05T10:20:46.138Z,24.91
2017-08-05T10:21:55.427Z,24.93
2017-08-05T10:23:04.392Z,24.91
2017-08-05T10:24:13.355Z,24.95
2017-08-05T10:25:22.317Z,24.91
2017-08-05T10:26:31.270Z,24.9
2017-08-05T10:27:40.238Z,24.88
2017-08-05T10:28:49.205Z,24.9
2017-08-05T10:29:58.179Z,24.83
2017-08-05T10:31:07.139Z,24.84
2017-08-05T10:32:16.097Z,24.8
2017-08-05T10:33:25.056Z,24.73
2017-08-05T10:34:34.023Z,24.73
2017-08-05T10:35:42.984Z,24.67
2017-08-05T10:36:51.943Z,24.61
2017-08-05T10:38:00.902Z,24.55
2017-08-05T10:39:09.866Z,24.57
2017-08-05T10:40:18.825Z,24.58
2017-08-05T10:41:27.788Z,24.6
2017-08-05T10:42:36.751Z,24.57
2017-08-05T10:43:45.721Z,24.53
2017-08-05T10:44:54.686Z,24.55
2017-08-05T10:46:03.657Z,24.5
2017-08-05T10:47:12.623Z,24.42
2017-08-05T10:48:21.585Z,24.4
2017-08-05T10:49:30.545Z,24.43
2017-08-05T10:50:39.507Z,24.4
2017-08-05T10:51:48.471Z,24.32
2017-08-05T10:52:57.434Z,24.32
2017-08-05T10:54:07.045Z,24.3
2017-08-05T10:55:16.015Z,24.34
2017-08-05T10:56:24.974Z,24.24
2017-08-05T10:57:33.929Z,24.31
2017-08-05T10:58:42.893Z,24.25
2017-08-05T10:59:51.856Z,24.25
2017-08-05T11:01:00.818Z,24.24
2017-08-05T11:02:09.771Z,24.25
2017-08-05T11:03:19.069Z,24.3
2017-08-05T11:04:28.035Z,24.31
2017-08-05T11:05:36.992Z,24.28
2017-08-05T11:06:45.944Z,24.25
2017-08-05T11:07:54.897Z,24.21
2017-08-05T11:09:03.865Z,24.27
2017-08-05T11:10:12.821Z,24.24
2017-08-05T11:11:21.779Z,24.1
2017-08-05T11:12:30.746Z,24.1
2017-08-05T11:13:39.704Z,24
2017-08-05T11:14:48.673Z,24.02
2017-08-05T11:15:57.631Z,24.06
2017-08-05T11:17:06.926Z,23.91
2017-08-05T11:18:15.877Z,23.91
2017-08-05T11:19:24.830Z,23.83
2017-08-05T11:20:33.793Z,23.8
2017-08-05T11:21:42.749Z,23.66
2017-08-05T11:22:51.713Z,23.53
2017-08-05T11:24:00.672Z,23.4
2017-08-05T11:25:09.630Z,23.31
2017-08-05T11:26:18.585Z,23.07
2017-08-05T11:27:27.556Z,23
2017-08-05T11:28:36.840Z,22.92
2017-08-05T11:29:45.802Z,22.79
2017-08-05T11:30:54.768Z,22.7
2017-08-05T11:32:03.739Z,22.75
2017-08-05T11:33:12.695Z,22.52
2017-08-05T11:34:21.656Z,22.4
2017-08-05T11:35:30.618Z,22.33
2017-08-05T11:36:39.584Z,22.12
2017-08-05T11:37:48.538Z,22.02
2017-08-05T11:38:57.498Z,21.88
2017-08-05T11:40:06.470Z,21.58
2017-08-05T11:41:15.437Z,21.61
2017-08-05T11:42:24.419Z,21.49
2017-08-05T11:43:33.382Z,21.37
2017-08-05T11:44:42.341Z,21.29
2017-08-05T11:45:51.312Z,21.25
2017-08-05T11:47:00.599Z,21.14
2017-08-05T11:48:09.557Z,21.01
2017-08-05T11:49:18.519Z,20.98
2017-08-05T11:50:27.480Z,20.99
2017-08-05T11:51:36.444Z,20.97
2017-08-05T11:52:45.433Z,20.92
2017-08-05T11:53:54.714Z,20.84
2017-08-05T11:55:03.671Z,20.72
2017-08-05T11:56:12.635Z,20.76
2017-08-05T11:57:21.599Z,20.76
2017-08-05T11:58:30.568Z,20.72
2017-08-05T11:59:39.535Z,20.57
2017-08-05T12:00:48.497Z,20.59
2017-08-05T12:01:57.459Z,20.55
2017-08-05T12:03:06.425Z,20.58
2017-08-05T12:04:15.390Z,20.51
2017-08-05T12:05:24.350Z,20.48
2017-08-05T12:06:33.306Z,20.41
2017-08-05T12:07:42.269Z,20.35
2017-08-05T12:08:51.232Z,20.38
2017-08-05T12:10:00.184Z,20.21
2017-08-05T12:11:09.144Z,20.17
2017-08-05T12:12:18.108Z,20.18
2017-08-05T12:13:27.071Z,20.17
2017-08-05T12:14:36.025Z,20.14
2017-08-05T12:15:44.985Z,20.17
2017-08-05T12:16:53.944Z,20.17
2017-08-05T12:18:02.893Z,20.16
2017-08-05T12:19:11.856Z,20.26
2017-08-05T12:20:20.827Z,20.32
2017-08-05T12:21:29.784Z,20.29
2017-08-05T12:22:39.077Z,20.33
2017-08-05T12:23:48.031Z,20.33
2017-08-05T12:24:57.011Z,20.31
2017-08-05T12:26:05.962Z,20.31
2017-08-05T12:27:14.929Z,20.28
2017-08-05T12:28:23.892Z,20.2
2017-08-05T12:29:32.849Z,20.29
2017-08-05T12:30:41.811Z,20.33
2017-08-05T12:31:50.771Z,20.42
2017-08-05T12:32:59.725Z,20.39
2017-08-05T12:34:08.682Z,20.43
2017-08-05T12:35:17.643Z,20.54
2017-08-05T12:36:26.604Z,20.51
2017-08-05T12:37:35.888Z,20.61
2017-08-05T12:38:44.857Z,20.55
2017-08-05T12:39:53.826Z,20.57
2017-08-05T12:41:03.111Z,20.59
2017-08-05T12:42:12.076Z,20.61
2017-08-05T12:43:21.055Z,20.58
2017-08-05T12:44:30.017Z,20.7
2017-08-05T12:45:38.979Z,20.58
2017-08-05T12:46:47.953Z,20.54
2017-08-05T12:47:56.915Z,20.61
2017-08-05T12:49:05.873Z,20.67
2017-08-05T12:50:14.840Z,20.62
2017-08-05T12:51:23.800Z,20.59
2017-08-05T12:52:32.763Z,20.66
2017-08-05T12:53:41.715Z,20.58
2017-08-05T12:54:50.683Z,20.55
2017-08-05T12:55:59.638Z,20.58
2017-08-05T12:57:08.597Z,20.51
2017-08-05T12:58:17.567Z,20.51
2017-08-05T12:59:26.528Z,20.5
2017-08-05T13:00:35.498Z,20.43
2017-08-05T13:01:44.460Z,20.41
2017-08-05T13:02:53.432Z,20.5
2017-08-05T13:04:02.388Z,20.47
2017-08-05T13:05:11.351Z,20.54
2017-08-05T13:06:20.315Z,20.5
2017-08-05T13:07:29.292Z,20.54
2017-08-05T13:08:38.258Z,20.54
2017-08-05T13:09:47.552Z,20.48
2017-08-05T13:10:56.509Z,20.5
2017-08-05T13:12:05.466Z,20.41
2017-08-05T13:13:14.422Z,20.36
2017-08-05T13:14:23.391Z,20.28
2017-08-05T13:15:32.343Z,20.2
2017-08-05T13:16:41.313Z,20.11
2017-08-05T13:17:50.274Z,20.17
2017-08-05T13:18:59.241Z,20.14
2017-08-05T13:20:08.206Z,20.21
2017-08-05T13:21:17.173Z,20.17
2017-08-05T13:22:26.137Z,20.16
2017-08-05T13:23:35.094Z,20.2
2017-08-05T13:24:44.046Z,20.33
2017-08-05T13:25:53.014Z,20.29
2017-08-05T13:27:01.984Z,20.35
2017-08-05T13:28:10.958Z,20.29
2017-08-05T13:29:19.925Z,20.17
2017-08-05T13:30:29.233Z,20.18
2017-08-05T13:31:38.194Z,20.2
2017-08-05T13:32:47.165Z,20.2
2017-08-05T13:33:56.213Z,20.29
2017-08-05T13:35:05.174Z,20.21
2017-08-05T13:36:14.131Z,20.32
2017-08-05T13:37:23.085Z,20.26
2017-08-05T13:38:32.047Z,20.2
2017-08-05T13:39:41.003Z,20.21
2017-08-05T13:40:49.961Z,20.26
2017-08-05T13:41:58.920Z,20.2
2017-08-05T13:43:07.875Z,20.16
2017-08-05T13:44:16.840Z,20.17
2017-08-05T13:45:25.794Z,20.18
2017-08-05T13:46:34.766Z,20.17
2017-08-05T13:47:43.729Z,20.17
2017-08-05T13:48:52.686Z,20.18
2017-08-05T13:50:01.656Z,20.05
2017-08-05T13:51:10.618Z,20.08
2017-08-05T13:52:19.575Z,20.05
2017-08-05T13:53:28.534Z,20.01
2017-08-05T13:54:37.513Z,19.96
2017-08-05T13:55:46.472Z,19.91
2017-08-05T13:56:55.432Z,19.86
2017-08-05T13:58:04.403Z,19.87
2017-08-05T13:59:13.360Z,19.86
2017-08-05T14:00:22.319Z,19.74
2017-08-05T14:01:31.282Z,19.77
2017-08-05T14:02:40.569Z,19.78
2017-08-05T14:03:49.528Z,19.77
2017-08-05T14:04:58.490Z,19.76
2017-08-05T14:06:07.450Z,19.65
2017-08-05T14:07:16.412Z,19.66
2017-08-05T14:08:25.370Z,19.66
2017-08-05T14:09:34.328Z,19.65
2017-08-05T14:10:43.616Z,19.63
2017-08-05T14:11:52.571Z,19.76
2017-08-05T14:13:01.527Z,19.78
2017-08-05T14:14:10.499Z,19.63
2017-08-05T14:15:19.464Z,19.68
2017-08-05T14:16:28.434Z,19.61
2017-08-05T14:17:37.394Z,19.62
2017-08-05T14:18:46.354Z,19.63
2017-08-05T14:19:55.313Z,19.61
2017-08-05T14:21:04.276Z,19.61
2017-08-05T14:22:13.248Z,19.59
2017-08-05T14:23:22.221Z,19.56
2017-08-05T14:24:31.179Z,19.59
2017-08-05T14:25:40.138Z,19.55
2017-08-05T14:26:49.106Z,19.48
2017-08-05T14:27:58.064Z,19.51
2017-08-05T14:29:07.022Z,19.5
2017-08-05T14:30:15.982Z,19.5
2017-08-05T14:31:25.260Z,19.5
2017-08-05T14:32:34.217Z,19.55
2017-08-05T14:33:43.171Z,19.43
2017-08-05T14:34:52.130Z,19.26
2017-08-05T14:36:01.111Z,19.21
2017-08-05T14:37:10.399Z,19.19
2017-08-05T14:38:19.360Z,19.29
2017-08-05T14:39:28.324Z,19.22
2017-08-05T14:40:37.286Z,19.26
2017-08-05T14:41:46.260Z,19.16
2017-08-05T14:42:55.542Z,19.18
2017-08-05T14:44:04.509Z,19.18
2017-08-05T14:45:13.796Z,19.16
2017-08-05T14:46:22.761Z,19.14
2017-08-05T14:47:31.723Z,19.13
2017-08-05T14:48:40.680Z,19.13
2017-08-05T14:49:49.640Z,19.1
2017-08-05T14:50:58.606Z,19.21
2017-08-05T14:52:07.558Z,19.1
2017-08-05T14:53:16.515Z,19.18